sensor_id;sensor_type;location;lat;lon;timestamp;pressure;altitude;pressure_sealevel;temperature;humidity
12594;BME280;6362;50.208;9.182;2024-02-26T00:02:05;98124.22;;;5.66;100.00
12594;BME280;6362;50.208;9.182;2024-02-26T00:04:32;98111.22;;;5.72;100.00
12594;BME280;6362;50.208;9.182;2024-02-26T00:06:57;98118.16;;;5.70;100.00
12594;BME280;6362;50.208;9.182;2024-02-26T00:09:23;98119.72;;;5.77;100.00
12594;BME280;6362;50.208;9.182;2024-02-26T00:11:49;98108.63;;;5.72;100.00
12594;BME280;6362;50.208;9.182;2024-02-26T00:14:14;98109.41;;;5.78;100.00
12594;BME280;6362;50.208;9.182;2024-02-26T00:16:40;98106.84;;;5.77;100.00
12594;BME280;6362;50.208;9.182;2024-02-26T00:19:07;98112.09;;;5.72;100.00
12594;BME280;6362;50.208;9.182;2024-02-26T00:21:32;98112.09;;;5.72;100.00
12594;BME280;6362;50.208;9.182;2024-02-26T00:23:58;98110.41;;;5.70;100.00
12594;BME280;6362;50.208;9.182;2024-02-26T00:26:23;98100.91;;;5.73;100.00
12594;BME280;6362;50.208;9.182;2024-02-26T00:28:49;98100.78;;;5.79;100.00
12594;BME280;6362;50.208;9.182;2024-02-26T00:31:14;98096.50;;;5.77;100.00
12594;BME280;6362;50.208;9.182;2024-02-26T00:33:40;98090.59;;;5.73;100.00
12594;BME280;6362;50.208;9.182;2024-02-26T00:36:05;98099.22;;;5.71;100.00
12594;BME280;6362;50.208;9.182;2024-02-26T00:38:31;98106.03;;;5.75;100.00
12594;BME280;6362;50.208;9.182;2024-02-26T00:40:56;98088.69;;;5.83;100.00
12594;BME280;6362;50.208;9.182;2024-02-26T00:43:22;98086.97;;;5.83;100.00
12594;BME280;6362;50.208;9.182;2024-02-26T00:45:47;98083.63;;;5.78;100.00
12594;BME280;6362;50.208;9.182;2024-02-26T00:48:13;98080.84;;;5.88;100.00
12594;BME280;6362;50.208;9.182;2024-02-26T00:50:39;98074.03;;;5.85;100.00
12594;BME280;6362;50.208;9.182;2024-02-26T00:53:05;98084.25;;;5.91;100.00
12594;BME280;6362;50.208;9.182;2024-02-26T00:55:30;98073.94;;;5.90;100.00
12594;BME280;6362;50.208;9.182;2024-02-26T00:57:56;98080.84;;;5.88;100.00
12594;BME280;6362;50.208;9.182;2024-02-26T01:00:21;98080.75;;;5.95;100.00
12594;BME280;6362;50.208;9.182;2024-02-26T01:02:47;98083.31;;;5.97;100.00
12594;BME280;6362;50.208;9.182;2024-02-26T01:05:13;98085.88;;;5.97;100.00
12594;BME280;6362;50.208;9.182;2024-02-26T01:07:39;98073.88;;;5.96;100.00
12594;BME280;6362;50.208;9.182;2024-02-26T01:10:06;98084.22;;;5.93;100.00
12594;BME280;6362;50.208;9.182;2024-02-26T01:12:35;98078.91;;;6.02;100.00
12594;BME280;6362;50.208;9.182;2024-02-26T01:15:01;98091.91;;;5.96;100.00
12594;BME280;6362;50.208;9.182;2024-02-26T01:17:28;98092.56;;;6.07;100.00
12594;BME280;6362;50.208;9.182;2024-02-26T01:19:53;98103.66;;;6.11;100.00
12594;BME280;6362;50.208;9.182;2024-02-26T01:22:19;98099.34;;;6.13;100.00
12594;BME280;6362;50.208;9.182;2024-02-26T01:24:45;98099.28;;;6.16;100.00
12594;BME280;6362;50.208;9.182;2024-02-26T01:27:11;98101.88;;;6.14;100.00
12594;BME280;6362;50.208;9.182;2024-02-26T01:29:36;98098.38;;;6.18;100.00
12594;BME280;6362;50.208;9.182;2024-02-26T01:32:02;98094.88;;;6.22;100.00
12594;BME280;6362;50.208;9.182;2024-02-26T01:34:29;98087.88;;;6.26;100.00
12594;BME280;6362;50.208;9.182;2024-02-26T01:36:55;98086.19;;;6.25;100.00
12594;BME280;6362;50.208;9.182;2024-02-26T01:39:21;98097.44;;;6.21;100.00
12594;BME280;6362;50.208;9.182;2024-02-26T01:41:47;98088.06;;;6.18;100.00
12594;BME280;6362;50.208;9.182;2024-02-26T01:44:13;98102.75;;;6.15;100.00
12594;BME280;6362;50.208;9.182;2024-02-26T01:46:41;98105.22;;;6.19;100.00
12594;BME280;6362;50.208;9.182;2024-02-26T01:49:08;98105.34;;;6.13;100.00
12594;BME280;6362;50.208;9.182;2024-02-26T01:51:39;98111.13;;;6.26;100.00
12594;BME280;6362;50.208;9.182;2024-02-26T01:54:06;98113.88;;;6.18;100.00
12594;BME280;6362;50.208;9.182;2024-02-26T01:56:33;98106.84;;;6.25;100.00
12594;BME280;6362;50.208;9.182;2024-02-26T01:59:01;98076.69;;;6.27;100.00
12594;BME280;6362;50.208;9.182;2024-02-26T02:01:31;98048.31;;;6.25;100.00
12594;BME280;6362;50.208;9.182;2024-02-26T02:03:58;98077.47;;;6.30;100.00
12594;BME280;6362;50.208;9.182;2024-02-26T02:06:24;98051.63;;;6.32;100.00
12594;BME280;6362;50.208;9.182;2024-02-26T02:08:50;98055.09;;;6.31;100.00
12594;BME280;6362;50.208;9.182;2024-02-26T02:11:16;98073.31;;;6.23;100.00
12594;BME280;6362;50.208;9.182;2024-02-26T02:13:42;98089.63;;;6.25;100.00
12594;BME280;6362;50.208;9.182;2024-02-26T02:16:08;98073.44;;;6.17;100.00
12594;BME280;6362;50.208;9.182;2024-02-26T02:18:33;98066.56;;;6.18;100.00
12594;BME280;6362;50.208;9.182;2024-02-26T02:21:02;98062.16;;;6.23;100.00
12594;BME280;6362;50.208;9.182;2024-02-26T02:23:28;98066.47;;;6.21;100.00
12594;BME280;6362;50.208;9.182;2024-02-26T02:25:54;98061.53;;;6.12;100.00
12594;BME280;6362;50.208;9.182;2024-02-26T02:28:22;98061.31;;;6.22;100.00
12594;BME280;6362;50.208;9.182;2024-02-26T02:30:48;98058.78;;;6.19;100.00
12594;BME280;6362;50.208;9.182;2024-02-26T02:33:15;98051.19;;;6.12;100.00
12594;BME280;6362;50.208;9.182;2024-02-26T02:35:41;98065.84;;;6.09;100.00
12594;BME280;6362;50.208;9.182;2024-02-26T02:38:06;98059.06;;;6.05;100.00
12594;BME280;6362;50.208;9.182;2024-02-26T02:40:32;98071.09;;;6.06;100.00
12594;BME280;6362;50.208;9.182;2024-02-26T02:42:57;98070.25;;;6.04;100.00
12594;BME280;6362;50.208;9.182;2024-02-26T02:45:23;98087.44;;;6.05;100.00
12594;BME280;6362;50.208;9.182;2024-02-26T02:47:49;98081.88;;;6.25;100.00
12594;BME280;6362;50.208;9.182;2024-02-26T02:50:14;98069.69;;;6.32;100.00
12594;BME280;6362;50.208;9.182;2024-02-26T02:52:40;98062.38;;;6.12;100.00
12594;BME280;6362;50.208;9.182;2024-02-26T02:55:06;98036.66;;;6.07;100.00
12594;BME280;6362;50.208;9.182;2024-02-26T02:57:32;98049.63;;;6.03;100.00
12594;BME280;6362;50.208;9.182;2024-02-26T02:59:58;98029.88;;;6.02;100.00
12594;BME280;6362;50.208;9.182;2024-02-26T03:02:23;98042.06;;;5.95;100.00
12594;BME280;6362;50.208;9.182;2024-02-26T03:04:50;98048.88;;;5.98;100.00
12594;BME280;6362;50.208;9.182;2024-02-26T03:07:16;98056.34;;;6.12;100.00
12594;BME280;6362;50.208;9.182;2024-02-26T03:09:41;98047.28;;;6.34;100.00
12594;BME280;6362;50.208;9.182;2024-02-26T03:12:07;98057.41;;;6.43;100.00
12594;BME280;6362;50.208;9.182;2024-02-26T03:14:32;98044.63;;;6.37;100.00
12594;BME280;6362;50.208;9.182;2024-02-26T03:16:58;98035.38;;;6.27;100.00
12594;BME280;6362;50.208;9.182;2024-02-26T03:19:23;98040.75;;;6.18;100.00
12594;BME280;6362;50.208;9.182;2024-02-26T03:21:49;98030.59;;;6.08;100.00
12594;BME280;6362;50.208;9.182;2024-02-26T03:24:14;98035.72;;;6.10;100.00
12594;BME280;6362;50.208;9.182;2024-02-26T03:26:40;98051.44;;;5.98;100.00
12594;BME280;6362;50.208;9.182;2024-02-26T03:29:05;98036.06;;;5.93;100.00
12594;BME280;6362;50.208;9.182;2024-02-26T03:31:31;98036.94;;;5.91;100.00
12594;BME280;6362;50.208;9.182;2024-02-26T03:33:56;98046.41;;;5.92;100.00
12594;BME280;6362;50.208;9.182;2024-02-26T03:36:22;98036.97;;;5.89;100.00
12594;BME280;6362;50.208;9.182;2024-02-26T03:38:48;98054.84;;;6.01;100.00
12594;BME280;6362;50.208;9.182;2024-02-26T03:41:14;98083.34;;;5.94;100.00
12594;BME280;6362;50.208;9.182;2024-02-26T03:43:40;98078.09;;;5.98;100.00
12594;BME280;6362;50.208;9.182;2024-02-26T03:46:09;98073.00;;;5.95;100.00
12594;BME280;6362;50.208;9.182;2024-02-26T03:48:36;98073.06;;;5.91;100.00
12594;BME280;6362;50.208;9.182;2024-02-26T03:51:02;98084.28;;;5.88;100.00
12594;BME280;6362;50.208;9.182;2024-02-26T03:53:27;98093.78;;;5.86;100.00
12594;BME280;6362;50.208;9.182;2024-02-26T03:55:53;98099.75;;;5.91;100.00
12594;BME280;6362;50.208;9.182;2024-02-26T03:58:20;98104.09;;;5.86;100.00
12594;BME280;6362;50.208;9.182;2024-02-26T04:00:46;98096.94;;;6.03;100.00
12594;BME280;6362;50.208;9.182;2024-02-26T04:03:13;98084.97;;;5.99;100.00
12594;BME280;6362;50.208;9.182;2024-02-26T04:05:38;98088.00;;;6.20;100.00
12594;BME280;6362;50.208;9.182;2024-02-26T04:08:05;98105.28;;;6.16;100.00
12594;BME280;6362;50.208;9.182;2024-02-26T04:10:32;98097.50;;;6.19;100.00
12594;BME280;6362;50.208;9.182;2024-02-26T04:12:57;98100.22;;;6.12;100.00
12594;BME280;6362;50.208;9.182;2024-02-26T04:15:23;98103.66;;;6.11;100.00
12594;BME280;6362;50.208;9.182;2024-02-26T04:17:48;98106.16;;;6.15;100.00
12594;BME280;6362;50.208;9.182;2024-02-26T04:20:15;98111.47;;;6.07;100.00
12594;BME280;6362;50.208;9.182;2024-02-26T04:22:43;98122.44;;;6.19;100.00
12594;BME280;6362;50.208;9.182;2024-02-26T04:25:09;98112.16;;;6.17;100.00
12594;BME280;6362;50.208;9.182;2024-02-26T04:27:35;98118.28;;;6.12;100.00
12594;BME280;6362;50.208;9.182;2024-02-26T04:30:00;98130.06;;;6.25;100.00
12594;BME280;6362;50.208;9.182;2024-02-26T04:32:25;98107.69;;;6.25;100.00
12594;BME280;6362;50.208;9.182;2024-02-26T04:34:51;98118.91;;;6.24;100.00
12594;BME280;6362;50.208;9.182;2024-02-26T04:37:17;98123.19;;;6.25;100.00
12594;BME280;6362;50.208;9.182;2024-02-26T04:39:42;98121.69;;;6.14;100.00
12594;BME280;6362;50.208;9.182;2024-02-26T04:42:07;98111.25;;;6.20;100.00
12594;BME280;6362;50.208;9.182;2024-02-26T04:44:33;98109.78;;;6.06;100.00
12594;BME280;6362;50.208;9.182;2024-02-26T04:46:58;98111.63;;;5.98;100.00
12594;BME280;6362;50.208;9.182;2024-02-26T04:49:24;98117.66;;;5.99;100.00
12594;BME280;6362;50.208;9.182;2024-02-26T04:51:49;98111.75;;;5.92;100.00
12594;BME280;6362;50.208;9.182;2024-02-26T04:54:15;98111.75;;;5.91;100.00
12594;BME280;6362;50.208;9.182;2024-02-26T04:56:40;98123.84;;;5.87;100.00
12594;BME280;6362;50.208;9.182;2024-02-26T04:59:05;98113.66;;;5.81;100.00
12594;BME280;6362;50.208;9.182;2024-02-26T05:01:31;98104.19;;;5.81;100.00
12594;BME280;6362;50.208;9.182;2024-02-26T05:03:56;98105.97;;;5.78;100.00
12594;BME280;6362;50.208;9.182;2024-02-26T05:06:22;98094.81;;;5.76;100.00
12594;BME280;6362;50.208;9.182;2024-02-26T05:08:47;98101.69;;;5.77;100.00
12594;BME280;6362;50.208;9.182;2024-02-26T05:11:13;98099.97;;;5.76;100.00
12594;BME280;6362;50.208;9.182;2024-02-26T05:13:38;98099.09;;;5.77;100.00
12594;BME280;6362;50.208;9.182;2024-02-26T05:16:04;98108.59;;;5.75;100.00
12594;BME280;6362;50.208;9.182;2024-02-26T05:18:29;98112.88;;;5.76;100.00
12594;BME280;6362;50.208;9.182;2024-02-26T05:20:55;98114.56;;;5.77;100.00
12594;BME280;6362;50.208;9.182;2024-02-26T05:23:20;98115.44;;;5.77;100.00
12594;BME280;6362;50.208;9.182;2024-02-26T05:25:46;98124.91;;;5.75;100.00
12594;BME280;6362;50.208;9.182;2024-02-26T05:28:13;98128.38;;;5.74;100.00
12594;BME280;6362;50.208;9.182;2024-02-26T05:30:41;98121.53;;;5.73;100.00
12594;BME280;6362;50.208;9.182;2024-02-26T05:33:06;98125.81;;;5.74;100.00
12594;BME280;6362;50.208;9.182;2024-02-26T05:35:31;98123.34;;;5.68;100.00
12594;BME280;6362;50.208;9.182;2024-02-26T05:37:57;98125.91;;;5.68;100.00
12594;BME280;6362;50.208;9.182;2024-02-26T05:40:22;98124.22;;;5.67;100.00
12594;BME280;6362;50.208;9.182;2024-02-26T05:42:48;98129.47;;;5.61;100.00
12594;BME280;6362;50.208;9.182;2024-02-26T05:45:14;98120.84;;;5.64;100.00
12594;BME280;6362;50.208;9.182;2024-02-26T05:47:39;98120.88;;;5.61;100.00
12594;BME280;6362;50.208;9.182;2024-02-26T05:50:09;98121.72;;;5.63;100.00
12594;BME280;6362;50.208;9.182;2024-02-26T05:52:36;98125.19;;;5.62;100.00
12594;BME280;6362;50.208;9.182;2024-02-26T05:55:02;98127.75;;;5.62;100.00
12594;BME280;6362;50.208;9.182;2024-02-26T05:57:28;98128.53;;;5.67;100.00
12594;BME280;6362;50.208;9.182;2024-02-26T05:59:53;98132.03;;;5.63;100.00
12594;BME280;6362;50.208;9.182;2024-02-26T06:02:19;98144.97;;;5.60;100.00
12594;BME280;6362;50.208;9.182;2024-02-26T06:04:44;98143.25;;;5.59;100.00
12594;BME280;6362;50.208;9.182;2024-02-26T06:07:11;98145.88;;;5.57;100.00
12594;BME280;6362;50.208;9.182;2024-02-26T06:09:37;98156.16;;;5.59;100.00
12594;BME280;6362;50.208;9.182;2024-02-26T06:12:02;98155.88;;;5.75;100.00
12594;BME280;6362;50.208;9.182;2024-02-26T06:14:28;98163.53;;;5.80;100.00
12594;BME280;6362;50.208;9.182;2024-02-26T06:16:53;98174.59;;;5.87;100.00
12594;BME280;6362;50.208;9.182;2024-02-26T06:19:19;98168.56;;;5.88;100.00
12594;BME280;6362;50.208;9.182;2024-02-26T06:21:44;98178.88;;;5.88;100.00
12594;BME280;6362;50.208;9.182;2024-02-26T06:24:10;98182.41;;;5.82;100.00
12594;BME280;6362;50.208;9.182;2024-02-26T06:26:35;98179.91;;;5.79;100.00
12594;BME280;6362;50.208;9.182;2024-02-26T06:29:01;98191.13;;;5.75;100.00
12594;BME280;6362;50.208;9.182;2024-02-26T06:31:26;98199.59;;;5.85;100.00
12594;BME280;6362;50.208;9.182;2024-02-26T06:33:55;98195.31;;;5.82;100.00
12594;BME280;6362;50.208;9.182;2024-02-26T06:36:22;98202.06;;;5.92;100.00
12594;BME280;6362;50.208;9.182;2024-02-26T06:38:47;98207.25;;;5.89;100.00
12594;BME280;6362;50.208;9.182;2024-02-26T06:41:13;98208.13;;;5.87;100.00
12594;BME280;6362;50.208;9.182;2024-02-26T06:43:38;98205.44;;;5.96;100.00
12594;BME280;6362;50.208;9.182;2024-02-26T06:46:03;98208.66;;;6.08;100.00
12594;BME280;6362;50.208;9.182;2024-02-26T06:48:30;98212.28;;;5.98;100.00
12594;BME280;6362;50.208;9.182;2024-02-26T06:50:56;98218.38;;;5.94;100.00
12594;BME280;6362;50.208;9.182;2024-02-26T06:53:21;98216.66;;;5.95;100.00
12594;BME280;6362;50.208;9.182;2024-02-26T06:55:47;98221.78;;;5.96;100.00
12594;BME280;6362;50.208;9.182;2024-02-26T06:58:14;98228.56;;;6.02;100.00
12594;BME280;6362;50.208;9.182;2024-02-26T07:00:40;98222.59;;;5.98;100.00
12594;BME280;6362;50.208;9.182;2024-02-26T07:03:07;98231.19;;;5.99;100.00
12594;BME280;6362;50.208;9.182;2024-02-26T07:05:32;98233.78;;;5.97;100.00
12594;BME280;6362;50.208;9.182;2024-02-26T07:07:58;98231.16;;;6.02;100.00
12594;BME280;6362;50.208;9.182;2024-02-26T07:10:23;98227.78;;;5.97;100.00
12594;BME280;6362;50.208;9.182;2024-02-26T07:12:49;98226.94;;;5.96;100.00
12594;BME280;6362;50.208;9.182;2024-02-26T07:15:14;98227.81;;;5.95;100.00
12594;BME280;6362;50.208;9.182;2024-02-26T07:17:40;98238.13;;;5.95;100.00
12594;BME280;6362;50.208;9.182;2024-02-26T07:20:08;98236.38;;;5.97;100.00
12594;BME280;6362;50.208;9.182;2024-02-26T07:22:34;98240.72;;;5.95;100.00
12594;BME280;6362;50.208;9.182;2024-02-26T07:24:59;98233.03;;;5.91;100.00
12594;BME280;6362;50.208;9.182;2024-02-26T07:27:25;98236.47;;;5.88;100.00
12594;BME280;6362;50.208;9.182;2024-02-26T07:29:50;98237.44;;;5.84;100.00
12594;BME280;6362;50.208;9.182;2024-02-26T07:32:16;98235.75;;;5.80;100.00
12594;BME280;6362;50.208;9.182;2024-02-26T07:34:41;98241.00;;;5.75;100.00
12594;BME280;6362;50.208;9.182;2024-02-26T07:37:07;98243.50;;;5.80;100.00
12594;BME280;6362;50.208;9.182;2024-02-26T07:39:33;98239.91;;;5.92;100.00
12594;BME280;6362;50.208;9.182;2024-02-26T07:41:59;98245.97;;;5.86;100.00
12594;BME280;6362;50.208;9.182;2024-02-26T07:44:24;98249.53;;;5.79;100.00
12594;BME280;6362;50.208;9.182;2024-02-26T07:46:50;98253.66;;;5.92;100.00
12594;BME280;6362;50.208;9.182;2024-02-26T07:49:15;98263.22;;;5.82;100.00
12594;BME280;6362;50.208;9.182;2024-02-26T07:51:41;98259.78;;;5.82;100.00
12594;BME280;6362;50.208;9.182;2024-02-26T07:54:06;98262.38;;;5.82;100.00
12594;BME280;6362;50.208;9.182;2024-02-26T07:56:31;98264.25;;;5.72;100.00
12594;BME280;6362;50.208;9.182;2024-02-26T07:58:57;98259.28;;;5.62;100.00
12594;BME280;6362;50.208;9.182;2024-02-26T08:01:23;98257.63;;;5.56;100.00
12594;BME280;6362;50.208;9.182;2024-02-26T08:03:48;98267.16;;;5.49;100.00
12594;BME280;6362;50.208;9.182;2024-02-26T08:06:14;98261.25;;;5.44;100.00
12594;BME280;6362;50.208;9.182;2024-02-26T08:08:39;98264.66;;;5.45;100.00
12594;BME280;6362;50.208;9.182;2024-02-26T08:11:05;98267.31;;;5.37;100.00
12594;BME280;6362;50.208;9.182;2024-02-26T08:13:30;98275.91;;;5.39;100.00
12594;BME280;6362;50.208;9.182;2024-02-26T08:15:56;98276.91;;;5.29;100.00
12594;BME280;6362;50.208;9.182;2024-02-26T08:18:21;98281.16;;;5.32;100.00
12594;BME280;6362;50.208;9.182;2024-02-26T08:20:47;98280.31;;;5.29;100.00
12594;BME280;6362;50.208;9.182;2024-02-26T08:23:14;98279.44;;;5.34;100.00
12594;BME280;6362;50.208;9.182;2024-02-26T08:25:39;98287.06;;;5.38;100.00
12594;BME280;6362;50.208;9.182;2024-02-26T08:28:05;98298.25;;;5.39;100.00
12594;BME280;6362;50.208;9.182;2024-02-26T08:30:31;98286.22;;;5.38;100.00
12594;BME280;6362;50.208;9.182;2024-02-26T08:32:56;98291.38;;;5.39;100.00
12594;BME280;6362;50.208;9.182;2024-02-26T08:35:22;98293.94;;;5.38;100.00
12594;BME280;6362;50.208;9.182;2024-02-26T08:37:47;98294.88;;;5.34;100.00
12594;BME280;6362;50.208;9.182;2024-02-26T08:40:13;98298.31;;;5.34;100.00
12594;BME280;6362;50.208;9.182;2024-02-26T08:42:39;98301.78;;;5.30;100.00
12594;BME280;6362;50.208;9.182;2024-02-26T08:45:05;98310.50;;;5.23;100.00
12594;BME280;6362;50.208;9.182;2024-02-26T08:47:31;98307.03;;;5.24;100.00
12594;BME280;6362;50.208;9.182;2024-02-26T08:49:58;98317.34;;;5.24;100.00
12594;BME280;6362;50.208;9.182;2024-02-26T08:52:23;98321.59;;;5.26;100.00
12594;BME280;6362;50.208;9.182;2024-02-26T08:54:49;98307.88;;;5.24;100.00
12594;BME280;6362;50.208;9.182;2024-02-26T08:57:15;98308.78;;;5.20;100.00
12594;BME280;6362;50.208;9.182;2024-02-26T08:59:40;98308.72;;;5.25;100.00
12594;BME280;6362;50.208;9.182;2024-02-26T09:02:06;98312.91;;;5.35;100.00
12594;BME280;6362;50.208;9.182;2024-02-26T09:04:33;98306.84;;;5.38;100.00
12594;BME280;6362;50.208;9.182;2024-02-26T09:06:59;98305.97;;;5.40;100.00
12594;BME280;6362;50.208;9.182;2024-02-26T09:09:24;98305.94;;;5.42;100.00
12594;BME280;6362;50.208;9.182;2024-02-26T09:11:51;98310.25;;;5.41;100.00
12594;BME280;6362;50.208;9.182;2024-02-26T09:14:18;98307.72;;;5.37;100.00
12594;BME280;6362;50.208;9.182;2024-02-26T09:16:43;98311.97;;;5.41;100.00
12594;BME280;6362;50.208;9.182;2024-02-26T09:19:09;98309.41;;;5.41;100.00
12594;BME280;6362;50.208;9.182;2024-02-26T09:21:34;98303.34;;;5.43;100.00
12594;BME280;6362;50.208;9.182;2024-02-26T09:23:59;98306.69;;;5.51;100.00
12594;BME280;6362;50.208;9.182;2024-02-26T09:26:25;98311.81;;;5.53;100.00
12594;BME280;6362;50.208;9.182;2024-02-26T09:28:50;98306.63;;;5.54;100.00
12594;BME280;6362;50.208;9.182;2024-02-26T09:31:17;98308.28;;;5.59;100.00
12594;BME280;6362;50.208;9.182;2024-02-26T09:33:43;98309.19;;;5.56;100.00
12594;BME280;6362;50.208;9.182;2024-02-26T09:36:09;98311.56;;;5.70;100.00
12594;BME280;6362;50.208;9.182;2024-02-26T09:38:36;98318.44;;;5.71;100.00
12594;BME280;6362;50.208;9.182;2024-02-26T09:41:04;98314.06;;;5.77;100.00
12594;BME280;6362;50.208;9.182;2024-02-26T09:43:34;98327.88;;;5.73;100.00
12594;BME280;6362;50.208;9.182;2024-02-26T09:46:01;98324.31;;;5.80;100.00
12594;BME280;6362;50.208;9.182;2024-02-26T09:48:26;98320.84;;;5.81;100.00
12594;BME280;6362;50.208;9.182;2024-02-26T09:50:53;98318.19;;;5.88;100.00
12594;BME280;6362;50.208;9.182;2024-02-26T09:53:21;98325.84;;;5.97;100.00
12594;BME280;6362;50.208;9.182;2024-02-26T09:55:47;98326.56;;;6.06;100.00
12594;BME280;6362;50.208;9.182;2024-02-26T09:58:12;98324.84;;;6.05;100.00
12594;BME280;6362;50.208;9.182;2024-02-26T10:00:46;98331.72;;;6.06;100.00
12594;BME280;6362;50.208;9.182;2024-02-26T10:03:13;98335.13;;;6.08;100.00
12594;BME280;6362;50.208;9.182;2024-02-26T10:05:41;98331.66;;;6.09;100.00
12594;BME280;6362;50.208;9.182;2024-02-26T10:08:08;98330.88;;;6.06;100.00
12594;BME280;6362;50.208;9.182;2024-02-26T10:10:34;98327.44;;;6.04;100.00
12594;BME280;6362;50.208;9.182;2024-02-26T10:13:02;98318.81;;;6.05;100.00
12594;BME280;6362;50.208;9.182;2024-02-26T10:15:29;98324.88;;;6.02;100.00
12594;BME280;6362;50.208;9.182;2024-02-26T10:17:54;98334.41;;;6.00;100.00
12594;BME280;6362;50.208;9.182;2024-02-26T10:20:20;98343.63;;;6.14;100.00
12594;BME280;6362;50.208;9.182;2024-02-26T10:22:48;98340.88;;;6.27;100.00
12594;BME280;6362;50.208;9.182;2024-02-26T10:25:14;98342.31;;;6.42;100.00
12594;BME280;6362;50.208;9.182;2024-02-26T10:27:41;98355.66;;;6.69;100.00
12594;BME280;6362;50.208;9.182;2024-02-26T10:30:22;98354.66;;;6.76;100.00
12594;BME280;6362;50.208;9.182;2024-02-26T10:32:51;98354.66;;;6.76;100.00
12594;BME280;6362;50.208;9.182;2024-02-26T10:35:17;98355.63;;;6.70;100.00
12594;BME280;6362;50.208;9.182;2024-02-26T10:37:43;98353.97;;;6.66;100.00
12594;BME280;6362;50.208;9.182;2024-02-26T10:40:10;98359.19;;;6.63;100.00
12594;BME280;6362;50.208;9.182;2024-02-26T10:42:36;98364.41;;;6.61;100.00
12594;BME280;6362;50.208;9.182;2024-02-26T10:45:03;98358.31;;;6.64;100.00
12594;BME280;6362;50.208;9.182;2024-02-26T10:47:29;98365.25;;;6.62;100.00
12594;BME280;6362;50.208;9.182;2024-02-26T10:49:56;98360.09;;;6.60;100.00
12594;BME280;6362;50.208;9.182;2024-02-26T10:52:22;98351.41;;;6.65;100.00
12594;BME280;6362;50.208;9.182;2024-02-26T10:54:54;98361.72;;;6.68;100.00
12594;BME280;6362;50.208;9.182;2024-02-26T10:57:23;98359.13;;;6.66;100.00
12594;BME280;6362;50.208;9.182;2024-02-26T10:59:51;98363.50;;;6.63;100.00
12594;BME280;6362;50.208;9.182;2024-02-26T11:02:20;98357.47;;;6.64;100.00
12594;BME280;6362;50.208;9.182;2024-02-26T11:04:46;98360.81;;;6.69;100.00
12594;BME280;6362;50.208;9.182;2024-02-26T11:07:12;98362.53;;;6.70;100.00
12594;BME280;6362;50.208;9.182;2024-02-26T11:09:38;98354.63;;;6.79;100.00
12594;BME280;6362;50.208;9.182;2024-02-26T11:12:10;98352.03;;;6.79;100.00
12594;BME280;6362;50.208;9.182;2024-02-26T11:14:39;98346.69;;;6.88;100.00
12594;BME280;6362;50.208;9.182;2024-02-26T11:17:07;98338.84;;;6.94;100.00
12594;BME280;6362;50.208;9.182;2024-02-26T11:19:35;98347.06;;;7.14;100.00
12594;BME280;6362;50.208;9.182;2024-02-26T11:22:01;98353.91;;;7.15;100.00
12594;BME280;6362;50.208;9.182;2024-02-26T11:24:27;98359.72;;;7.28;100.00
12594;BME280;6362;50.208;9.182;2024-02-26T11:26:55;98361.25;;;7.37;100.00
12594;BME280;6362;50.208;9.182;2024-02-26T11:29:32;98369.75;;;7.44;100.00
12594;BME280;6362;50.208;9.182;2024-02-26T11:32:00;98364.41;;;7.53;100.00
12594;BME280;6362;50.208;9.182;2024-02-26T11:34:26;98361.63;;;7.60;100.00
12594;BME280;6362;50.208;9.182;2024-02-26T11:36:53;98358.69;;;7.79;100.00
12594;BME280;6362;50.208;9.182;2024-02-26T11:39:19;98366.44;;;8.17;100.00
12594;BME280;6362;50.208;9.182;2024-02-26T11:41:45;98360.38;;;8.56;100.00
12594;BME280;6362;50.208;9.182;2024-02-26T11:44:10;98357.97;;;8.82;100.00
12594;BME280;6362;50.208;9.182;2024-02-26T11:46:40;98353.28;;;8.96;100.00
12594;BME280;6362;50.208;9.182;2024-02-26T11:51:57;98347.66;;;9.44;100.00
12594;BME280;6362;50.208;9.182;2024-02-26T11:54:44;98346.72;;;9.47;100.00
12594;BME280;6362;50.208;9.182;2024-02-26T11:57:26;98347.56;;;9.47;100.00
12594;BME280;6362;50.208;9.182;2024-02-26T11:59:56;98353.38;;;9.56;100.00
12594;BME280;6362;50.208;9.182;2024-02-26T12:02:51;98363.31;;;9.71;100.00
12594;BME280;6362;50.208;9.182;2024-02-26T12:05:23;98357.22;;;10.01;100.00
12594;BME280;6362;50.208;9.182;2024-02-26T12:07:53;98361.53;;;10.57;100.00
12594;BME280;6362;50.208;9.182;2024-02-26T12:10:27;98358.97;;;10.82;100.00
12594;BME280;6362;50.208;9.182;2024-02-26T12:13:02;98365.31;;;11.00;100.00
12594;BME280;6362;50.208;9.182;2024-02-26T12:15:32;98368.69;;;11.02;100.00
12594;BME280;6362;50.208;9.182;2024-02-26T12:18:00;98366.94;;;11.02;100.00
12594;BME280;6362;50.208;9.182;2024-02-26T12:20:26;98369.44;;;11.05;100.00
12594;BME280;6362;50.208;9.182;2024-02-26T12:22:52;98365.06;;;10.81;100.00
12594;BME280;6362;50.208;9.182;2024-02-26T12:25:26;98373.72;;;10.81;100.00
12594;BME280;6362;50.208;9.182;2024-02-26T12:27:52;98368.56;;;10.80;100.00
12594;BME280;6362;50.208;9.182;2024-02-26T12:30:18;98367.88;;;10.75;100.00
12594;BME280;6362;50.208;9.182;2024-02-26T12:32:45;98369.53;;;10.77;100.00
12594;BME280;6362;50.208;9.182;2024-02-26T12:35:11;98377.38;;;10.76;100.00
12594;BME280;6362;50.208;9.182;2024-02-26T12:37:38;98379.03;;;10.78;100.00
12594;BME280;6362;50.208;9.182;2024-02-26T12:40:08;98383.13;;;10.86;100.00
12594;BME280;6362;50.208;9.182;2024-02-26T12:42:35;98385.44;;;10.68;100.00
12594;BME280;6362;50.208;9.182;2024-02-26T12:45:08;98386.78;;;10.80;100.00
12594;BME280;6362;50.208;9.182;2024-02-26T12:47:43;98387.31;;;10.90;100.00
12594;BME280;6362;50.208;9.182;2024-02-26T12:50:11;98391.16;;;11.29;100.00
12594;BME280;6362;50.208;9.182;2024-02-26T12:52:43;98379.88;;;12.01;100.00
12594;BME280;6362;50.208;9.182;2024-02-26T12:55:11;98380.84;;;12.20;100.00
12594;BME280;6362;50.208;9.182;2024-02-26T12:57:42;98384.94;;;12.05;100.00
12594;BME280;6362;50.208;9.182;2024-02-26T13:00:12;98385.22;;;12.20;100.00
12594;BME280;6362;50.208;9.182;2024-02-26T13:02:40;98398.66;;;12.09;100.00
12594;BME280;6362;50.208;9.182;2024-02-26T13:05:08;98396.75;;;12.14;100.00
12594;BME280;6362;50.208;9.182;2024-02-26T13:07:34;98402.38;;;12.25;100.00
12594;BME280;6362;50.208;9.182;2024-02-26T13:10:05;98404.25;;;12.43;100.00